Time;durP1;ratioP1;P1;durP2;ratioP2;P2;SDS_P1;SDS_P2;PMS_P1;PMS_P2;Temp;Humidity;BMP_temperature;BMP_pressure;BME280_temperature;BME280_humidity;BME280_pressure;Samples;Min_cycle;Max_cycle;Signal;HPM_P1;HPM_P2
2021/03/14 00:01:05;;;;;;;8.43;1.65;;;6.10;99.90;;;;;;5063835;28;20045;-78
2021/03/14 00:03:33;;;;;;;3.92;1.50;;;6.10;99.90;;;;;;5066110;28;20487;-76
2021/03/14 00:06:01;;;;;;;7.07;1.08;;;6.10;99.90;;;;;;5059722;28;20063;-76
2021/03/14 00:08:30;;;;;;;3.78;1.50;;;6.20;99.00;;;;;;5054695;28;20426;-77
2021/03/14 00:10:59;;;;;;;3.20;1.10;;;6.20;98.90;;;;;;5065706;28;20063;-77
2021/03/14 00:13:31;;;;;;;2.70;1.13;;;6.10;99.60;;;;;;5065416;28;20044;-77
2021/03/14 00:15:57;;;;;;;2.80;0.63;;;6.10;99.20;;;;;;5071897;28;20418;-77
2021/03/14 00:18:29;;;;;;;2.95;0.80;;;6.10;99.00;;;;;;5071913;28;20056;-77
2021/03/14 00:20:57;;;;;;;1.05;0.50;;;6.00;99.00;;;;;;5067946;28;20650;-77
2021/03/14 00:23:24;;;;;;;0.30;0.30;;;6.00;98.60;;;;;;5073136;28;20065;-77
2021/03/14 00:25:50;;;;;;;0.88;0.52;;;6.00;99.20;;;;;;5068046;28;20098;-77
2021/03/14 00:28:18;;;;;;;1.45;0.50;;;6.00;99.00;;;;;;5066875;28;20457;-77
2021/03/14 00:30:47;;;;;;;1.77;0.68;;;6.00;98.90;;;;;;5063748;28;20056;-77
2021/03/14 00:33:14;;;;;;;1.92;0.77;;;6.00;99.20;;;;;;5065117;28;20400;-77
2021/03/14 00:35:41;;;;;;;2.03;0.60;;;6.00;99.10;;;;;;5068252;28;20048;-77
2021/03/14 00:38:07;;;;;;;2.15;0.70;;;5.90;99.60;;;;;;5068190;28;20394;-77
2021/03/14 00:40:34;;;;;;;0.90;0.60;;;5.90;98.90;;;;;;5068077;28;21021;-77
2021/03/14 00:43:03;;;;;;;1.77;0.63;;;5.90;99.00;;;;;;5071921;28;20052;-80
2021/03/14 00:45:32;;;;;;;7.35;1.05;;;6.00;99.30;;;;;;5065331;28;20407;-75
2021/03/14 00:48:01;;;;;;;3.38;0.77;;;6.10;99.00;;;;;;5067123;28;20102;-82
2021/03/14 00:50:31;;;;;;;3.55;1.00;;;6.10;99.00;;;;;;5067617;28;20084;-77
2021/03/14 00:52:57;;;;;;;4.68;1.00;;;6.10;99.00;;;;;;5069295;28;20052;-81
2021/03/14 00:55:24;;;;;;;1.30;0.60;;;6.20;99.10;;;;;;5066721;28;20079;-83
2021/03/14 00:57:50;;;;;;;1.88;0.70;;;6.20;99.10;;;;;;5061380;28;20052;-79
2021/03/14 01:00:17;;;;;;;3.40;0.70;;;6.10;99.50;;;;;;5052682;28;20057;-79
2021/03/14 01:02:44;;;;;;;2.17;0.88;;;6.10;99.70;;;;;;5055763;28;20492;-78
2021/03/14 01:05:13;;;;;;;1.27;0.93;;;6.00;99.90;;;;;;5055325;28;20063;-81
2021/03/14 01:07:39;;;;;;;1.73;0.82;;;6.00;99.90;;;;;;5053542;28;20049;-81
2021/03/14 01:10:07;;;;;;;3.17;1.60;;;6.00;99.90;;;;;;5061038;28;20041;-80
2021/03/14 01:12:37;;;;;;;3.80;1.80;;;6.10;99.90;;;;;;5055328;28;20052;-78
2021/03/14 01:15:07;;;;;;;3.67;1.30;;;6.30;99.30;;;;;;5060403;28;20066;-80
2021/03/14 01:17:34;;;;;;;4.28;1.45;;;6.30;99.40;;;;;;5054737;28;20045;-81
2021/03/14 01:20:01;;;;;;;4.60;1.40;;;6.30;98.90;;;;;;5059238;28;20048;-80
2021/03/14 01:22:27;;;;;;;4.93;1.30;;;6.40;98.30;;;;;;5059291;28;20067;-78
2021/03/14 01:24:54;;;;;;;5.82;1.40;;;6.40;98.40;;;;;;5053206;28;20123;-77
2021/03/14 01:27:21;;;;;;;9.40;1.92;;;6.40;98.10;;;;;;5051199;28;20040;-77
2021/03/14 01:29:48;;;;;;;6.97;2.42;;;6.50;97.70;;;;;;5051786;28;20052;-78
2021/03/14 01:32:14;;;;;;;4.75;1.38;;;6.60;97.70;;;;;;5063314;28;20491;-79
2021/03/14 01:34:41;;;;;;;8.80;1.63;;;6.70;97.70;;;;;;5063511;28;20040;-79
2021/03/14 01:37:09;;;;;;;6.28;1.73;;;6.70;97.60;;;;;;5060542;28;20055;-78
2021/03/14 01:39:35;;;;;;;3.88;1.67;;;6.70;97.10;;;;;;5059779;28;20049;-79
2021/03/14 01:42:02;;;;;;;3.33;1.30;;;6.70;97.30;;;;;;5065757;28;20048;-79
2021/03/14 01:44:28;;;;;;;6.40;1.20;;;6.70;96.80;;;;;;5060992;28;20106;-78
2021/03/14 01:46:54;;;;;;;4.68;1.70;;;6.70;96.60;;;;;;5062410;28;20060;-78
2021/03/14 01:49:21;;;;;;;3.85;1.30;;;6.70;97.40;;;;;;5060872;28;20049;-78
2021/03/14 01:51:48;;;;;;;4.93;1.60;;;6.70;96.20;;;;;;5066474;28;20049;-77
2021/03/14 01:54:15;;;;;;;3.88;1.02;;;6.60;96.80;;;;;;5064747;28;20049;-77
2021/03/14 01:56:41;;;;;;;4.15;1.50;;;6.60;96.30;;;;;;5059217;28;20048;-78
2021/03/14 01:59:09;;;;;;;2.67;1.20;;;6.60;95.90;;;;;;5068694;28;20044;-77
2021/03/14 02:01:36;;;;;;;2.65;0.85;;;6.50;96.30;;;;;;5062150;28;20132;-78
2021/03/14 02:04:04;;;;;;;1.75;1.10;;;6.50;95.60;;;;;;5065723;28;20131;-78
2021/03/14 02:06:30;;;;;;;4.63;1.20;;;6.40;95.90;;;;;;5070946;28;20094;-78
2021/03/14 02:08:57;;;;;;;2.97;1.10;;;6.40;95.70;;;;;;5066049;28;20053;-78
2021/03/14 02:11:27;;;;;;;4.43;1.10;;;6.30;96.50;;;;;;5067685;28;20445;-79
2021/03/14 02:13:56;;;;;;;2.65;0.90;;;6.40;96.20;;;;;;5071885;28;20478;-78
2021/03/14 02:16:38;;;;;;;3.77;0.80;;;6.40;96.20;;;;;;5063658;28;20049;-79
2021/03/14 02:19:10;;;;;;;7.78;0.95;;;6.40;96.40;;;;;;5061987;28;20483;-78
2021/03/14 02:21:37;;;;;;;3.78;0.90;;;6.40;96.10;;;;;;5082360;28;20453;-78
2021/03/14 02:24:09;;;;;;;6.57;1.00;;;6.30;95.80;;;;;;5060164;28;20061;-78
2021/03/14 02:26:45;;;;;;;2.67;0.70;;;6.30;95.90;;;;;;5064495;28;20099;-78
2021/03/14 02:29:17;;;;;;;3.45;1.10;;;6.30;96.00;;;;;;5069768;28;20059;-78
2021/03/14 02:31:46;;;;;;;7.40;1.02;;;6.20;96.00;;;;;;5064810;28;20064;-78
2021/03/14 02:34:29;;;;;;;2.65;0.90;;;6.20;96.00;;;;;;5069482;28;20076;-76
2021/03/14 02:36:57;;;;;;;2.40;0.90;;;6.20;96.00;;;;;;5067149;28;20040;-79
2021/03/14 02:39:25;;;;;;;4.72;1.00;;;6.20;95.90;;;;;;5063043;28;20064;-81
2021/03/14 02:41:53;;;;;;;3.70;0.95;;;6.20;96.10;;;;;;5068692;28;20097;-80
2021/03/14 02:44:29;;;;;;;2.45;0.75;;;6.20;95.90;;;;;;5066722;28;20384;-80
2021/03/14 02:46:56;;;;;;;1.60;0.70;;;6.20;95.20;;;;;;5067449;28;20052;-79
2021/03/14 02:49:23;;;;;;;3.03;0.90;;;6.10;95.30;;;;;;5070085;28;20036;-79
2021/03/14 02:51:50;;;;;;;4.40;0.90;;;6.10;95.10;;;;;;5062344;28;20123;-79
2021/03/14 02:54:21;;;;;;;2.85;0.90;;;6.10;94.60;;;;;;5068533;28;20414;-80
2021/03/14 02:56:49;;;;;;;3.00;1.10;;;6.00;94.70;;;;;;5072728;28;20049;-80
2021/03/14 02:59:17;;;;;;;2.97;0.85;;;6.00;94.70;;;;;;5063392;28;20492;-79
2021/03/14 03:01:48;;;;;;;1.70;0.80;;;6.00;94.80;;;;;;5066107;28;20057;-79
2021/03/14 03:04:24;;;;;;;6.38;1.00;;;6.00;94.80;;;;;;5065585;28;20060;-79
2021/03/14 03:06:53;;;;;;;1.20;0.85;;;6.00;94.90;;;;;;5065800;28;20051;-79
2021/03/14 03:09:19;;;;;;;2.05;0.80;;;6.00;94.50;;;;;;5069676;28;20055;-78
2021/03/14 03:11:49;;;;;;;2.90;1.27;;;5.90;94.40;;;;;;5067718;28;20079;-79
2021/03/14 03:14:18;;;;;;;5.35;1.13;;;6.00;94.60;;;;;;5067770;28;20074;-78
2021/03/14 03:16:48;;;;;;;5.88;1.15;;;6.00;94.40;;;;;;5066375;28;20095;-79
2021/03/14 03:19:16;;;;;;;3.70;1.10;;;5.90;94.80;;;;;;5066623;28;20049;-80
2021/03/14 03:21:44;;;;;;;2.20;1.25;;;6.00;94.60;;;;;;5067468;28;20048;-80
2021/03/14 03:24:11;;;;;;;5.78;1.40;;;6.00;94.20;;;;;;5062897;28;20456;-79
2021/03/14 03:26:41;;;;;;;3.67;1.17;;;6.00;94.30;;;;;;5061674;28;20048;-79
2021/03/14 03:29:09;;;;;;;2.08;1.13;;;6.10;94.50;;;;;;5065199;28;20484;-79
2021/03/14 03:31:36;;;;;;;4.43;1.15;;;6.10;93.80;;;;;;5068764;28;20053;-77
2021/03/14 03:34:05;;;;;;;6.63;1.40;;;6.20;93.90;;;;;;5065607;28;20049;-77
2021/03/14 03:36:32;;;;;;;6.18;1.27;;;6.10;93.60;;;;;;5069825;28;20041;-78
2021/03/14 03:39:00;;;;;;;2.58;1.25;;;6.10;93.40;;;;;;5062520;28;20045;-78
2021/03/14 03:41:51;;;;;;;4.57;1.48;;;6.10;94.00;;;;;;5062995;28;20049;-77
2021/03/14 03:44:23;;;;;;;3.38;1.30;;;6.10;94.10;;;;;;5066389;28;20070;-78
2021/03/14 03:46:55;;;;;;;2.17;1.50;;;6.10;93.80;;;;;;5067903;28;20492;-79
2021/03/14 03:49:27;;;;;;;3.78;1.50;;;6.10;93.90;;;;;;5070533;28;20047;-78
2021/03/14 03:51:54;;;;;;;6.13;1.50;;;6.10;94.30;;;;;;5066957;28;20052;-78
2021/03/14 03:54:22;;;;;;;4.22;2.20;;;6.10;95.00;;;;;;5071490;28;20041;-78
2021/03/14 03:56:51;;;;;;;6.05;1.92;;;6.10;95.80;;;;;;5067833;28;20488;-78
2021/03/14 03:59:19;;;;;;;4.00;2.17;;;5.90;96.60;;;;;;5071746;28;20053;-78
2021/03/14 04:01:46;;;;;;;8.20;1.75;;;5.80;98.90;;;;;;5065903;28;20381;-78
2021/03/14 04:04:14;;;;;;;6.05;1.95;;;5.80;98.20;;;;;;5064017;28;20078;-78
2021/03/14 04:06:42;;;;;;;3.38;1.98;;;5.70;98.50;;;;;;5072824;28;20048;-78
2021/03/14 04:09:09;;;;;;;5.95;1.98;;;5.70;99.30;;;;;;5067809;28;20060;-78
2021/03/14 04:11:39;;;;;;;5.75;2.50;;;5.80;99.90;;;;;;5067231;28;20075;-78
2021/03/14 04:14:10;;;;;;;7.50;2.50;;;5.80;99.10;;;;;;5071010;28;20044;-79
2021/03/14 04:16:38;;;;;;;7.57;2.30;;;5.90;99.20;;;;;;5069926;28;20067;-80
2021/03/14 04:19:11;;;;;;;7.68;2.17;;;5.90;98.80;;;;;;5072512;28;20049;-80
2021/03/14 04:21:40;;;;;;;4.80;2.33;;;5.90;97.90;;;;;;5072766;28;20067;-81
2021/03/14 04:24:11;;;;;;;4.68;2.30;;;5.90;97.70;;;;;;5069456;28;20059;-80
2021/03/14 04:26:42;;;;;;;6.80;2.50;;;6.00;97.20;;;;;;5072145;28;20075;-80
2021/03/14 04:29:10;;;;;;;2.67;1.92;;;6.10;96.80;;;;;;5066347;28;20135;-81
2021/03/14 04:31:42;;;;;;;3.25;1.90;;;6.00;96.10;;;;;;5067454;28;20494;-81
2021/03/14 04:34:10;;;;;;;5.80;2.17;;;6.10;96.50;;;;;;5071897;28;20064;-80
2021/03/14 04:36:39;;;;;;;5.40;2.20;;;6.10;96.10;;;;;;5067841;28;20045;-82
2021/03/14 04:39:06;;;;;;;3.90;2.10;;;6.10;95.60;;;;;;5069890;28;20508;-80
2021/03/14 04:41:37;;;;;;;3.78;1.83;;;6.10;96.20;;;;;;5069164;28;20067;-80
2021/03/14 04:44:05;;;;;;;3.55;2.15;;;6.10;96.00;;;;;;5052395;28;20061;-80
2021/03/14 04:46:32;;;;;;;5.20;2.30;;;6.10;96.20;;;;;;5071059;28;20438;-79
2021/03/14 04:49:00;;;;;;;5.45;2.50;;;6.00;96.10;;;;;;5072050;28;20040;-80
2021/03/14 04:51:36;;;;;;;7.38;2.60;;;6.10;96.40;;;;;;5070919;28;20047;-79
2021/03/14 04:54:04;;;;;;;6.70;2.70;;;6.30;96.70;;;;;;5069834;28;20109;-80
2021/03/14 04:56:31;;;;;;;6.03;2.60;;;6.10;97.30;;;;;;5071671;28;24456;-79
2021/03/14 04:58:59;;;;;;;4.00;2.30;;;6.10;96.70;;;;;;5067708;28;20044;-81
2021/03/14 05:01:26;;;;;;;5.90;2.50;;;6.10;96.40;;;;;;5070050;28;20094;-80
2021/03/14 05:03:58;;;;;;;3.05;2.15;;;6.10;96.20;;;;;;5067465;28;20055;-81
2021/03/14 05:06:25;;;;;;;5.32;2.65;;;6.10;96.40;;;;;;5062428;28;20052;-81
2021/03/14 05:08:52;;;;;;;4.07;2.08;;;6.10;96.30;;;;;;5072062;28;20094;-80
2021/03/14 05:11:21;;;;;;;3.65;2.17;;;6.10;95.80;;;;;;5070592;28;20048;-80
2021/03/14 05:13:49;;;;;;;5.63;2.40;;;6.10;95.70;;;;;;5072064;28;20041;-80
2021/03/14 05:16:17;;;;;;;5.03;2.28;;;6.10;95.90;;;;;;5070861;28;20044;-81
2021/03/14 05:18:45;;;;;;;3.78;2.22;;;6.10;95.80;;;;;;5069464;28;20040;-80
2021/03/14 05:21:13;;;;;;;4.93;2.30;;;6.10;95.80;;;;;;5072753;28;20472;-81
2021/03/14 05:23:40;;;;;;;4.47;2.15;;;6.10;95.70;;;;;;5068110;28;20048;-80
2021/03/14 05:26:12;;;;;;;5.35;2.17;;;6.00;95.30;;;;;;5070555;28;20052;-81
2021/03/14 05:28:40;;;;;;;4.20;1.83;;;6.00;95.40;;;;;;5066034;28;20048;-81
2021/03/14 05:31:34;;;;;;;8.02;1.90;;;6.10;95.50;;;;;;5068014;28;20216;-81
2021/03/14 05:34:04;;;;;;;3.35;1.75;;;6.00;94.60;;;;;;5066006;28;20063;-80
2021/03/14 05:36:31;;;;;;;7.32;2.13;;;6.10;94.80;;;;;;5070047;28;20048;-81
2021/03/14 05:38:59;;;;;;;3.50;1.55;;;6.10;94.40;;;;;;5067602;28;21960;-81
2021/03/14 05:41:26;;;;;;;7.88;1.80;;;6.10;93.90;;;;;;5069432;28;20102;-81
2021/03/14 05:43:53;;;;;;;3.22;1.45;;;6.10;94.20;;;;;;5067751;28;20120;-81
2021/03/14 05:46:22;;;;;;;7.38;2.00;;;6.10;94.30;;;;;;5063849;28;20098;-81
2021/03/14 05:48:48;;;;;;;5.80;1.55;;;6.10;95.20;;;;;;5069924;28;20419;-79
2021/03/14 05:51:23;;;;;;;6.50;1.33;;;6.20;94.70;;;;;;5070025;28;20049;-81
2021/03/14 05:53:55;;;;;;;4.10;1.20;;;6.20;93.50;;;;;;5066667;28;20041;-80
2021/03/14 05:56:22;;;;;;;2.60;1.58;;;6.20;93.50;;;;;;5069694;28;20456;-81
2021/03/14 05:58:56;;;;;;;14.20;1.90;;;6.20;93.90;;;;;;5069654;28;20051;-81
2021/03/14 06:01:27;;;;;;;3.42;1.20;;;6.20;94.00;;;;;;5057121;28;20442;-80
2021/03/14 06:03:55;;;;;;;9.38;1.23;;;6.20;94.00;;;;;;5064436;28;20048;-80
2021/03/14 06:06:26;;;;;;;4.60;1.40;;;6.20;93.90;;;;;;5066736;28;20067;-81
2021/03/14 06:08:53;;;;;;;2.75;1.10;;;6.20;94.60;;;;;;5069619;28;20396;-81
2021/03/14 06:11:22;;;;;;;3.70;1.45;;;6.20;94.10;;;;;;5071216;28;20188;-80
2021/03/14 06:13:49;;;;;;;2.27;1.10;;;6.10;94.40;;;;;;5065687;28;20135;-81
2021/03/14 06:16:15;;;;;;;2.88;1.38;;;6.10;94.50;;;;;;5069883;28;20635;-82
2021/03/14 06:18:42;;;;;;;2.83;1.20;;;6.10;94.10;;;;;;5053541;28;20094;-82
2021/03/14 06:21:29;;;;;;;8.23;1.40;;;6.10;93.90;;;;;;5069006;28;20458;-81
2021/03/14 06:24:09;;;;;;;4.00;1.55;;;6.10;94.00;;;;;;5066465;28;20527;-81
2021/03/14 06:26:43;;;;;;;3.47;1.85;;;6.00;93.90;;;;;;5069316;28;20509;-81
2021/03/14 06:29:18;;;;;;;2.05;1.45;;;6.00;93.90;;;;;;5065688;28;20045;-81
2021/03/14 06:32:00;;;;;;;4.65;1.88;;;6.00;94.10;;;;;;5058553;28;20131;-81
2021/03/14 06:34:35;;;;;;;3.50;1.52;;;6.00;94.10;;;;;;5070410;28;20052;-81
2021/03/14 06:37:11;;;;;;;4.65;1.60;;;6.00;94.00;;;;;;5068051;28;20517;-81
2021/03/14 06:39:46;;;;;;;2.33;1.40;;;6.00;93.90;;;;;;5067885;28;20037;-81
2021/03/14 06:42:32;;;;;;;6.22;1.85;;;6.00;93.70;;;;;;5071883;28;20443;-82
2021/03/14 06:45:07;;;;;;;7.55;2.08;;;6.00;93.90;;;;;;5067941;28;20048;-81
2021/03/14 06:47:48;;;;;;;4.38;1.85;;;6.00;93.90;;;;;;5078474;28;20091;-80
2021/03/14 06:50:34;;;;;;;6.40;1.98;;;5.90;93.30;;;;;;5070369;28;20098;-82
2021/03/14 06:53:19;;;;;;;5.45;1.90;;;5.90;93.50;;;;;;5061749;28;20110;-81
2021/03/14 06:56:05;;;;;;;4.88;2.10;;;5.90;93.60;;;;;;5066746;28;20052;-81
2021/03/14 06:58:36;;;;;;;5.47;2.47;;;5.90;93.40;;;;;;5051321;28;20049;-81
2021/03/14 07:01:17;;;;;;;4.97;2.13;;;6.00;93.50;;;;;;5070329;28;20044;-81
2021/03/14 07:03:52;;;;;;;8.02;2.63;;;6.10;93.00;;;;;;5064480;28;20048;-78
2021/03/14 07:06:23;;;;;;;3.63;2.20;;;6.20;92.70;;;;;;5067821;28;20526;-80
2021/03/14 07:08:55;;;;;;;8.02;2.67;;;6.40;92.20;;;;;;5069810;28;20055;-80
2021/03/14 07:11:42;;;;;;;7.55;2.55;;;6.50;91.90;;;;;;5065546;28;20060;-79
2021/03/14 07:14:13;;;;;;;6.53;2.20;;;6.60;91.50;;;;;;5060020;28;20045;-78
2021/03/14 07:16:46;;;;;;;4.97;2.33;;;6.60;90.70;;;;;;5070011;28;20044;-80
2021/03/14 07:19:23;;;;;;;5.50;2.17;;;6.50;91.30;;;;;;5069233;28;20049;-79
2021/03/14 07:22:11;;;;;;;4.30;1.80;;;6.50;90.80;;;;;;5069504;28;20052;-78
2021/03/14 07:24:44;;;;;;;7.40;2.50;;;6.60;90.70;;;;;;5071116;28;20056;-78
2021/03/14 07:27:12;;;;;;;9.35;2.20;;;6.50;90.40;;;;;;5071894;28;20102;-79
2021/03/14 07:29:41;;;;;;;7.97;2.20;;;6.70;90.30;;;;;;5068647;28;20045;-78
2021/03/14 07:32:08;;;;;;;5.03;1.83;;;6.70;89.50;;;;;;5074739;28;20176;-80
2021/03/14 07:34:35;;;;;;;3.80;1.75;;;6.60;89.30;;;;;;5070209;28;20049;-80
2021/03/14 07:37:02;;;;;;;7.15;1.55;;;6.60;89.20;;;;;;5072363;28;20055;-78
2021/03/14 07:39:29;;;;;;;3.97;1.70;;;6.70;88.00;;;;;;5073525;28;20060;-78
2021/03/14 07:41:56;;;;;;;4.15;1.90;;;6.90;87.00;;;;;;5068028;28;20044;-80
2021/03/14 07:44:25;;;;;;;5.90;1.90;;;7.00;86.10;;;;;;5075396;28;20458;-79
2021/03/14 07:46:54;;;;;;;5.93;1.63;;;7.00;86.90;;;;;;5070312;28;20056;-80
2021/03/14 07:49:26;;;;;;;4.80;2.00;;;7.20;85.20;;;;;;5070969;28;20056;-79
2021/03/14 07:52:01;;;;;;;5.07;1.33;;;7.10;82.70;;;;;;5069498;28;20387;-78
2021/03/14 07:54:55;;;;;;;3.90;1.80;;;7.00;83.10;;;;;;5068615;28;20078;-80
2021/03/14 07:57:24;;;;;;;4.30;1.83;;;7.00;83.70;;;;;;5072742;28;20060;-81
2021/03/14 07:59:51;;;;;;;4.03;2.25;;;7.00;83.00;;;;;;5071326;28;20055;-82
2021/03/14 08:02:19;;;;;;;4.97;2.50;;;7.10;83.50;;;;;;5072812;28;20532;-82
2021/03/14 08:04:46;;;;;;;4.93;2.10;;;7.10;83.60;;;;;;5063525;28;20129;-83
2021/03/14 08:07:13;;;;;;;10.55;2.33;;;7.20;83.70;;;;;;5075640;28;20128;-82
2021/03/14 08:09:40;;;;;;;4.40;2.30;;;7.30;82.50;;;;;;5066751;28;20040;-79
2021/03/14 08:12:21;;;;;;;5.53;1.90;;;7.20;82.30;;;;;;5071569;28;20105;-79
2021/03/14 08:14:51;;;;;;;7.38;2.90;;;7.20;82.00;;;;;;5075771;28;20062;-81
2021/03/14 08:17:21;;;;;;;10.13;2.55;;;7.30;82.60;;;;;;5065653;28;20041;-81
2021/03/14 08:19:49;;;;;;;6.75;1.80;;;7.20;82.10;;;;;;5063675;28;20071;-79
2021/03/14 08:22:38;;;;;;;7.10;1.95;;;7.30;82.30;;;;;;5067839;28;20530;-78
2021/03/14 08:25:21;;;;;;;7.97;2.05;;;7.30;81.00;;;;;;5066245;28;20056;-79
2021/03/14 08:27:53;;;;;;;7.82;2.00;;;7.30;81.10;;;;;;5057074;28;20067;-80
2021/03/14 08:30:32;;;;;;;8.88;1.77;;;7.30;82.10;;;;;;5068250;28;20074;-80
2021/03/14 08:33:17;;;;;;;2.92;1.40;;;7.20;81.60;;;;;;5068310;28;20453;-80
2021/03/14 08:35:52;;;;;;;4.85;1.70;;;7.20;83.00;;;;;;5070128;28;20048;-81
2021/03/14 08:38:30;;;;;;;3.13;1.33;;;7.10;84.20;;;;;;5073607;28;20144;-81
2021/03/14 08:41:22;;;;;;;5.75;1.70;;;6.90;85.10;;;;;;5068629;28;20075;-80
2021/03/14 08:44:07;;;;;;;2.65;1.58;;;6.60;87.70;;;;;;5071451;28;20063;-80
2021/03/14 08:46:48;;;;;;;6.18;1.60;;;6.70;87.80;;;;;;5071551;28;20458;-81
2021/03/14 08:49:21;;;;;;;7.53;1.55;;;6.80;87.40;;;;;;5065274;28;20524;-82
2021/03/14 08:51:48;;;;;;;2.95;1.17;;;6.90;87.40;;;;;;5069106;28;20045;-80
2021/03/14 08:54:41;;;;;;;3.22;1.30;;;7.00;87.20;;;;;;5062781;28;20101;-79
2021/03/14 08:57:11;;;;;;;6.63;1.25;;;7.10;86.10;;;;;;5065369;28;20044;-80
2021/03/14 08:59:49;;;;;;;6.75;1.92;;;7.10;86.10;;;;;;5067929;28;20048;-79
2021/03/14 09:02:31;;;;;;;6.32;1.48;;;7.10;86.30;;;;;;5064358;28;20136;-79
2021/03/14 09:05:17;;;;;;;7.93;1.70;;;7.20;85.60;;;;;;5063400;28;20476;-81
2021/03/14 09:07:44;;;;;;;5.07;1.55;;;7.10;85.40;;;;;;5067203;28;20045;-79
2021/03/14 09:10:12;;;;;;;7.53;1.48;;;7.20;85.70;;;;;;5070636;28;20037;-79
2021/03/14 09:12:39;;;;;;;2.53;1.15;;;7.20;84.90;;;;;;5068200;28;20048;-80
2021/03/14 09:15:09;;;;;;;4.10;1.60;;;7.30;84.40;;;;;;5067190;28;20057;-80
2021/03/14 09:17:38;;;;;;;5.37;1.50;;;7.40;83.10;;;;;;5081476;28;20044;-79
2021/03/14 09:20:17;;;;;;;5.40;1.67;;;7.50;82.50;;;;;;5066942;28;20053;-81
2021/03/14 09:22:43;;;;;;;4.10;1.45;;;7.60;81.70;;;;;;5063715;28;20048;-80
2021/03/14 09:25:13;;;;;;;4.43;1.30;;;7.70;82.40;;;;;;5063405;28;20076;-80
2021/03/14 09:27:42;;;;;;;8.48;1.70;;;7.60;80.60;;;;;;5065173;28;20502;-80
2021/03/14 09:30:12;;;;;;;4.75;2.03;;;7.60;82.00;;;;;;5059491;28;20404;-81
2021/03/14 09:32:52;;;;;;;5.97;1.58;;;7.60;81.80;;;;;;5062030;28;20049;-81
2021/03/14 09:35:31;;;;;;;4.75;1.70;;;7.70;81.90;;;;;;5065604;28;20059;-80
2021/03/14 09:38:07;;;;;;;5.18;1.55;;;7.70;80.80;;;;;;5065410;28;20072;-81
2021/03/14 09:40:42;;;;;;;2.38;1.30;;;7.70;79.90;;;;;;5065207;28;20461;-81
2021/03/14 09:43:16;;;;;;;5.93;1.55;;;7.50;79.80;;;;;;5061611;28;20048;-79
2021/03/14 09:45:47;;;;;;;5.35;1.27;;;7.50;80.30;;;;;;5064631;28;20048;-76
2021/03/14 09:48:25;;;;;;;11.40;1.92;;;7.60;80.00;;;;;;5061322;28;20114;-80
2021/03/14 09:50:56;;;;;;;7.32;1.70;;;7.60;78.60;;;;;;5063081;28;20045;-78
2021/03/14 09:53:27;;;;;;;3.50;1.25;;;7.70;79.20;;;;;;5063463;28;20119;-77
2021/03/14 09:55:57;;;;;;;4.63;1.50;;;7.70;80.30;;;;;;5058400;28;20041;-78
2021/03/14 09:58:25;;;;;;;5.20;1.38;;;7.60;79.80;;;;;;5064987;28;20049;-79
2021/03/14 10:00:54;;;;;;;6.25;1.27;;;7.50;80.00;;;;;;5062511;28;20049;-78
2021/03/14 10:03:24;;;;;;;6.22;1.70;;;7.40;80.20;;;;;;5054739;28;20063;-79
2021/03/14 10:05:56;;;;;;;1.90;1.15;;;7.30;80.60;;;;;;5067181;28;20353;-80
2021/03/14 10:08:33;;;;;;;3.50;1.23;;;7.40;80.20;;;;;;5065322;28;20099;-79
2021/03/14 10:11:13;;;;;;;4.88;1.45;;;7.70;80.40;;;;;;5050541;28;20048;-78
2021/03/14 10:13:44;;;;;;;10.80;1.70;;;7.80;79.50;;;;;;5059571;28;20045;-79
2021/03/14 10:16:16;;;;;;;5.75;1.52;;;8.20;79.80;;;;;;5067335;28;20376;-78
2021/03/14 10:18:44;;;;;;;4.72;2.03;;;8.40;76.40;;;;;;5063686;28;20053;-79
2021/03/14 10:21:20;;;;;;;4.63;1.52;;;8.60;75.70;;;;;;5069480;28;20040;-74
2021/03/14 10:23:48;;;;;;;5.60;1.40;;;9.20;75.20;;;;;;5065462;28;20166;-75
2021/03/14 10:26:15;;;;;;;6.63;1.88;;;9.50;72.80;;;;;;5063634;28;20487;-75
2021/03/14 10:28:44;;;;;;;10.10;2.92;;;9.60;72.30;;;;;;5068196;28;20048;-76
2021/03/14 10:31:12;;;;;;;9.43;2.03;;;9.70;74.00;;;;;;5056469;28;20048;-76
2021/03/14 10:33:44;;;;;;;4.97;1.75;;;10.10;73.30;;;;;;5060877;28;20311;-76
2021/03/14 10:36:12;;;;;;;6.43;2.63;;;9.60;74.60;;;;;;5065664;28;20087;-77
2021/03/14 10:38:42;;;;;;;7.90;3.15;;;9.50;75.80;;;;;;5063406;28;20078;-79
2021/03/14 10:41:14;;;;;;;;;;;9.10;76.50;;;;;;5053157;28;20052;-73
2021/03/14 10:43:49;;;;;;;6.15;2.25;;;8.90;77.90;;;;;;5068538;28;19920;-74
2021/03/14 10:46:43;;;;;;;7.25;2.63;;;9.00;78.20;;;;;;5064861;28;20503;-74
2021/03/14 10:49:11;;;;;;;5.60;2.65;;;8.80;75.40;;;;;;5064626;28;20040;-73
2021/03/14 10:51:40;;;;;;;4.68;1.70;;;8.80;75.90;;;;;;5066321;28;20072;-75
2021/03/14 10:54:09;;;;;;;8.25;2.30;;;8.70;75.50;;;;;;5051593;28;20136;-74
2021/03/14 10:56:40;;;;;;;6.43;2.90;;;8.80;76.90;;;;;;5052684;28;20064;-75
2021/03/14 10:59:21;;;;;;;6.88;2.97;;;8.60;74.90;;;;;;5049619;28;20060;-75
2021/03/14 11:01:52;;;;;;;4.18;1.55;;;8.50;75.70;;;;;;5049449;28;20086;-80
2021/03/14 11:04:26;;;;;;;14.40;1.90;;;8.60;74.70;;;;;;5030911;28;20080;-77
2021/03/14 11:06:54;;;;;;;2.85;1.52;;;8.50;73.80;;;;;;5050636;28;20065;-76
2021/03/14 11:09:22;;;;;;;3.80;1.67;;;8.40;74.70;;;;;;5047896;28;20443;-74
2021/03/14 11:11:50;;;;;;;10.02;2.10;;;8.50;74.20;;;;;;5047617;28;20377;-75
2021/03/14 11:14:37;;;;;;;3.70;1.48;;;8.50;75.10;;;;;;5050814;28;20060;-74
2021/03/14 11:17:19;;;;;;;7.15;2.22;;;8.50;74.70;;;;;;5044926;28;20056;-73
2021/03/14 11:19:51;;;;;;;4.50;2.00;;;8.60;74.90;;;;;;5050152;28;20045;-74
2021/03/14 11:22:19;;;;;;;3.40;1.17;;;8.50;76.00;;;;;;5056979;28;20052;-73
2021/03/14 11:24:49;;;;;;;4.28;1.27;;;8.40;75.60;;;;;;5049404;28;20479;-73
2021/03/14 11:27:16;;;;;;;4.55;1.80;;;8.30;76.90;;;;;;5056982;28;20726;-73
2021/03/14 11:29:43;;;;;;;6.30;1.80;;;8.60;79.00;;;;;;5050581;28;20099;-74
2021/03/14 11:32:13;;;;;;;2.75;1.40;;;8.30;78.80;;;;;;5048427;28;20045;-73
2021/03/14 11:34:45;;;;;;;6.78;1.63;;;8.10;80.00;;;;;;5050302;28;20152;-74
2021/03/14 11:37:12;;;;;;;3.17;1.52;;;8.10;81.50;;;;;;5058728;28;20076;-74
2021/03/14 11:39:39;;;;;;;4.05;1.67;;;7.90;81.40;;;;;;5048450;28;20052;-77
2021/03/14 11:42:10;;;;;;;1.75;0.98;;;8.10;81.60;;;;;;5049917;28;20080;-71
2021/03/14 11:44:36;;;;;;;4.28;1.23;;;8.00;81.20;;;;;;5053922;28;20078;-68
2021/03/14 11:47:03;;;;;;;5.43;1.75;;;8.00;82.50;;;;;;5045500;28;20091;-72
2021/03/14 11:49:30;;;;;;;3.22;1.00;;;8.00;83.70;;;;;;5046702;28;20061;-73
2021/03/14 11:51:57;;;;;;;2.75;1.10;;;7.90;84.60;;;;;;5056674;28;20053;-75
2021/03/14 11:54:23;;;;;;;8.15;1.48;;;7.80;85.30;;;;;;5052770;28;20052;-75
2021/03/14 11:56:51;;;;;;;2.55;0.88;;;7.60;89.00;;;;;;5048997;28;20075;-77
2021/03/14 11:59:18;;;;;;;3.83;1.27;;;7.10;91.60;;;;;;5048050;28;20049;-76
2021/03/14 12:01:46;;;;;;;4.88;1.65;;;7.00;92.70;;;;;;5049559;28;20048;-76
2021/03/14 12:04:13;;;;;;;2.45;1.25;;;7.10;93.80;;;;;;5048419;28;20049;-81
2021/03/14 12:06:40;;;;;;;4.13;1.45;;;7.00;93.50;;;;;;5055628;28;20062;-77
2021/03/14 12:09:07;;;;;;;3.92;1.40;;;7.20;93.40;;;;;;5048140;28;20052;-79
2021/03/14 12:11:34;;;;;;;5.95;1.42;;;7.60;93.10;;;;;;5051785;28;20048;-78
2021/03/14 12:14:01;;;;;;;2.42;1.30;;;7.70;92.30;;;;;;5053120;28;20052;-78
2021/03/14 12:16:28;;;;;;;4.45;1.55;;;7.50;92.60;;;;;;5052541;28;20105;-75
2021/03/14 12:18:55;;;;;;;5.05;1.50;;;7.50;93.40;;;;;;5053280;28;20484;-78
2021/03/14 12:21:25;;;;;;;6.07;1.60;;;7.40;92.90;;;;;;5052360;28;20520;-79
2021/03/14 12:23:51;;;;;;;5.50;2.22;;;7.50;95.00;;;;;;5053087;28;20049;-79
2021/03/14 12:26:20;;;;;;;6.00;1.80;;;7.20;94.20;;;;;;5059868;28;20053;-76
2021/03/14 12:28:47;;;;;;;4.57;2.10;;;7.00;94.60;;;;;;5060116;28;20047;-78
2021/03/14 12:31:13;;;;;;;3.35;2.00;;;7.70;95.70;;;;;;5054408;28;20048;-80
2021/03/14 12:33:40;;;;;;;5.75;1.80;;;7.60;93.90;;;;;;5052918;28;20460;-78
2021/03/14 12:36:07;;;;;;;4.97;2.83;;;7.60;94.30;;;;;;5052686;28;20045;-76
2021/03/14 12:38:33;;;;;;;4.72;2.33;;;7.60;94.20;;;;;;5059815;28;20150;-78
2021/03/14 12:41:00;;;;;;;3.90;1.90;;;8.00;93.20;;;;;;5055140;28;20041;-78
2021/03/14 12:43:26;;;;;;;5.18;1.75;;;8.30;93.00;;;;;;5053047;28;21001;-79
2021/03/14 12:45:53;;;;;;;3.38;1.60;;;8.10;92.30;;;;;;5053014;28;20114;-79
2021/03/14 12:48:20;;;;;;;4.38;1.83;;;8.30;92.10;;;;;;5051557;28;20053;-79
2021/03/14 12:50:47;;;;;;;4.25;1.30;;;8.40;92.20;;;;;;5052803;28;20120;-79
2021/03/14 12:53:14;;;;;;;1.85;1.20;;;8.60;92.20;;;;;;5054747;28;20049;-77
2021/03/14 12:55:40;;;;;;;3.47;1.30;;;8.00;91.30;;;;;;5054793;28;20052;-75
2021/03/14 12:58:07;;;;;;;1.52;1.02;;;7.90;92.80;;;;;;5062178;28;20467;-78
2021/03/14 13:00:33;;;;;;;5.25;1.48;;;7.80;93.00;;;;;;5051596;28;20049;-77
2021/03/14 13:03:00;;;;;;;5.40;1.48;;;9.50;91.60;;;;;;5051609;28;20074;-79
2021/03/14 13:05:27;;;;;;;1.63;1.00;;;10.60;83.70;;;;;;5052119;28;20419;-80
2021/03/14 13:07:54;;;;;;;2.05;1.13;;;10.50;83.00;;;;;;5053310;28;20103;-79
2021/03/14 13:10:22;;;;;;;2.85;1.48;;;9.90;84.00;;;;;;5052541;28;20048;-79
2021/03/14 13:12:49;;;;;;;4.90;1.40;;;9.30;88.50;;;;;;5052487;28;20045;-79
2021/03/14 13:15:19;;;;;;;2.67;1.30;;;9.10;88.30;;;;;;5057951;28;20480;-78